sensor_id;sensor_type;location;lat;lon;timestamp;temperature;humidity
51839;DHT22;37886;53.174;6.368;2023-04-28T00:02:16;5.40;99.90
51839;DHT22;37886;53.174;6.368;2023-04-28T00:04:42;5.40;99.90
51839;DHT22;37886;53.174;6.368;2023-04-28T00:07:08;5.40;99.90
51839;DHT22;37886;53.174;6.368;2023-04-28T00:09:34;5.40;99.90
51839;DHT22;37886;53.174;6.368;2023-04-28T00:11:59;5.40;99.90
51839;DHT22;37886;53.174;6.368;2023-04-28T00:14:26;5.40;99.90
51839;DHT22;37886;53.174;6.368;2023-04-28T00:16:51;5.40;99.90
51839;DHT22;37886;53.174;6.368;2023-04-28T00:19:17;5.40;99.90
51839;DHT22;37886;53.174;6.368;2023-04-28T00:21:43;5.40;99.90
51839;DHT22;37886;53.174;6.368;2023-04-28T00:24:08;5.50;99.90
51839;DHT22;37886;53.174;6.368;2023-04-28T00:26:34;5.40;99.90
51839;DHT22;37886;53.174;6.368;2023-04-28T00:29:00;5.40;99.90
51839;DHT22;37886;53.174;6.368;2023-04-28T00:31:25;5.40;99.90
51839;DHT22;37886;53.174;6.368;2023-04-28T00:33:51;5.40;99.90
51839;DHT22;37886;53.174;6.368;2023-04-28T00:36:16;5.40;99.90
51839;DHT22;37886;53.174;6.368;2023-04-28T00:38:42;5.40;99.90
51839;DHT22;37886;53.174;6.368;2023-04-28T00:41:11;5.40;99.90
51839;DHT22;37886;53.174;6.368;2023-04-28T00:43:46;5.40;99.90
51839;DHT22;37886;53.174;6.368;2023-04-28T00:48:49;5.40;99.90
51839;DHT22;37886;53.174;6.368;2023-04-28T00:51:15;5.40;99.90
51839;DHT22;37886;53.174;6.368;2023-04-28T00:53:41;5.40;99.90
51839;DHT22;37886;53.174;6.368;2023-04-28T00:56:08;5.40;99.90
51839;DHT22;37886;53.174;6.368;2023-04-28T00:58:34;5.40;99.90
51839;DHT22;37886;53.174;6.368;2023-04-28T01:01:08;5.40;99.90
51839;DHT22;37886;53.174;6.368;2023-04-28T01:03:36;5.30;99.90
51839;DHT22;37886;53.174;6.368;2023-04-28T01:06:04;5.40;99.90
51839;DHT22;37886;53.174;6.368;2023-04-28T01:08:30;5.40;99.90
51839;DHT22;37886;53.174;6.368;2023-04-28T01:10:56;5.30;99.90
51839;DHT22;37886;53.174;6.368;2023-04-28T01:13:22;5.30;99.90
51839;DHT22;37886;53.174;6.368;2023-04-28T01:15:48;5.40;99.90
51839;DHT22;37886;53.174;6.368;2023-04-28T01:18:15;5.40;99.90
51839;DHT22;37886;53.174;6.368;2023-04-28T01:20:41;5.30;99.90
51839;DHT22;37886;53.174;6.368;2023-04-28T01:23:14;5.30;99.90
51839;DHT22;37886;53.174;6.368;2023-04-28T01:25:41;5.30;99.90
51839;DHT22;37886;53.174;6.368;2023-04-28T01:28:08;5.30;99.90
51839;DHT22;37886;53.174;6.368;2023-04-28T01:30:34;5.30;99.90
51839;DHT22;37886;53.174;6.368;2023-04-28T01:33:03;5.30;99.90
51839;DHT22;37886;53.174;6.368;2023-04-28T01:35:29;5.30;99.90
51839;DHT22;37886;53.174;6.368;2023-04-28T01:37:55;5.30;99.90
51839;DHT22;37886;53.174;6.368;2023-04-28T01:40:20;5.30;99.90
51839;DHT22;37886;53.174;6.368;2023-04-28T01:42:46;5.20;99.90
51839;DHT22;37886;53.174;6.368;2023-04-28T01:45:12;5.20;99.90
51839;DHT22;37886;53.174;6.368;2023-04-28T01:47:37;5.20;99.90
51839;DHT22;37886;53.174;6.368;2023-04-28T01:50:04;5.20;99.90
51839;DHT22;37886;53.174;6.368;2023-04-28T01:52:31;5.20;99.90
51839;DHT22;37886;53.174;6.368;2023-04-28T01:54:56;5.20;99.90
51839;DHT22;37886;53.174;6.368;2023-04-28T01:57:22;5.20;99.90
51839;DHT22;37886;53.174;6.368;2023-04-28T01:59:48;5.30;99.90
51839;DHT22;37886;53.174;6.368;2023-04-28T02:02:13;5.30;99.90
51839;DHT22;37886;53.174;6.368;2023-04-28T02:04:39;5.30;99.90
51839;DHT22;37886;53.174;6.368;2023-04-28T02:07:06;5.30;99.90
51839;DHT22;37886;53.174;6.368;2023-04-28T02:09:32;5.30;99.90
51839;DHT22;37886;53.174;6.368;2023-04-28T02:11:58;5.40;99.90
51839;DHT22;37886;53.174;6.368;2023-04-28T02:14:24;5.30;99.90
51839;DHT22;37886;53.174;6.368;2023-04-28T02:16:50;5.30;99.90
51839;DHT22;37886;53.174;6.368;2023-04-28T02:19:16;5.30;99.90
51839;DHT22;37886;53.174;6.368;2023-04-28T02:21:42;5.30;99.90
51839;DHT22;37886;53.174;6.368;2023-04-28T02:24:07;5.30;99.90
51839;DHT22;37886;53.174;6.368;2023-04-28T02:26:34;5.30;99.90
51839;DHT22;37886;53.174;6.368;2023-04-28T02:29:00;5.30;99.90
51839;DHT22;37886;53.174;6.368;2023-04-28T02:31:25;5.30;99.90
51839;DHT22;37886;53.174;6.368;2023-04-28T02:33:51;5.20;99.90
51839;DHT22;37886;53.174;6.368;2023-04-28T02:36:17;5.30;99.90
51839;DHT22;37886;53.174;6.368;2023-04-28T02:38:43;5.30;99.90
51839;DHT22;37886;53.174;6.368;2023-04-28T02:41:09;5.30;99.90
51839;DHT22;37886;53.174;6.368;2023-04-28T02:43:36;5.40;99.90
51839;DHT22;37886;53.174;6.368;2023-04-28T02:46:03;5.40;99.90
51839;DHT22;37886;53.174;6.368;2023-04-28T02:48:29;5.40;99.90
51839;DHT22;37886;53.174;6.368;2023-04-28T02:50:55;5.40;99.90
51839;DHT22;37886;53.174;6.368;2023-04-28T02:53:21;5.40;99.90
51839;DHT22;37886;53.174;6.368;2023-04-28T02:55:47;5.40;99.90
51839;DHT22;37886;53.174;6.368;2023-04-28T02:58:13;5.40;99.90
51839;DHT22;37886;53.174;6.368;2023-04-28T03:00:39;5.50;99.90
51839;DHT22;37886;53.174;6.368;2023-04-28T03:03:05;5.50;99.90
51839;DHT22;37886;53.174;6.368;2023-04-28T03:05:31;5.50;99.90
51839;DHT22;37886;53.174;6.368;2023-04-28T03:07:57;5.50;99.90
51839;DHT22;37886;53.174;6.368;2023-04-28T03:10:23;5.60;99.90
51839;DHT22;37886;53.174;6.368;2023-04-28T03:12:49;5.60;99.90
51839;DHT22;37886;53.174;6.368;2023-04-28T03:15:15;5.60;99.90
51839;DHT22;37886;53.174;6.368;2023-04-28T03:17:40;5.60;99.90
51839;DHT22;37886;53.174;6.368;2023-04-28T03:20:08;5.70;99.90
51839;DHT22;37886;53.174;6.368;2023-04-28T03:22:34;5.70;99.90
51839;DHT22;37886;53.174;6.368;2023-04-28T03:25:00;5.70;99.90
51839;DHT22;37886;53.174;6.368;2023-04-28T03:27:26;5.70;99.90
51839;DHT22;37886;53.174;6.368;2023-04-28T03:29:52;5.80;99.90
51839;DHT22;37886;53.174;6.368;2023-04-28T03:32:18;5.80;99.90
51839;DHT22;37886;53.174;6.368;2023-04-28T03:34:44;5.90;99.90
51839;DHT22;37886;53.174;6.368;2023-04-28T03:37:09;5.80;99.90
51839;DHT22;37886;53.174;6.368;2023-04-28T03:39:35;5.80;99.90
51839;DHT22;37886;53.174;6.368;2023-04-28T03:42:01;5.80;99.90
51839;DHT22;37886;53.174;6.368;2023-04-28T03:44:26;5.80;99.90
51839;DHT22;37886;53.174;6.368;2023-04-28T03:46:52;5.80;99.90
51839;DHT22;37886;53.174;6.368;2023-04-28T03:49:18;5.80;99.90
51839;DHT22;37886;53.174;6.368;2023-04-28T03:51:44;5.80;99.90
51839;DHT22;37886;53.174;6.368;2023-04-28T03:54:09;5.80;99.90
51839;DHT22;37886;53.174;6.368;2023-04-28T03:56:35;5.80;99.90
51839;DHT22;37886;53.174;6.368;2023-04-28T03:59:01;5.80;99.90
51839;DHT22;37886;53.174;6.368;2023-04-28T04:01:27;5.80;99.90
51839;DHT22;37886;53.174;6.368;2023-04-28T04:03:52;5.90;99.90
51839;DHT22;37886;53.174;6.368;2023-04-28T04:06:18;5.90;99.90
51839;DHT22;37886;53.174;6.368;2023-04-28T04:08:45;5.90;99.90
51839;DHT22;37886;53.174;6.368;2023-04-28T04:11:11;5.90;99.90
51839;DHT22;37886;53.174;6.368;2023-04-28T04:13:37;5.90;99.90
51839;DHT22;37886;53.174;6.368;2023-04-28T04:16:03;5.90;99.90
51839;DHT22;37886;53.174;6.368;2023-04-28T04:18:29;5.90;99.90
51839;DHT22;37886;53.174;6.368;2023-04-28T04:20:54;5.90;99.90
51839;DHT22;37886;53.174;6.368;2023-04-28T04:23:21;5.90;99.90
51839;DHT22;37886;53.174;6.368;2023-04-28T04:25:48;5.90;99.90
51839;DHT22;37886;53.174;6.368;2023-04-28T04:28:14;5.90;99.90
51839;DHT22;37886;53.174;6.368;2023-04-28T04:30:40;5.90;99.90
51839;DHT22;37886;53.174;6.368;2023-04-28T04:33:05;5.90;99.90
51839;DHT22;37886;53.174;6.368;2023-04-28T04:35:31;5.90;99.90
51839;DHT22;37886;53.174;6.368;2023-04-28T04:37:57;5.90;99.90
51839;DHT22;37886;53.174;6.368;2023-04-28T04:40:23;5.90;99.90
51839;DHT22;37886;53.174;6.368;2023-04-28T04:42:48;5.90;99.90
51839;DHT22;37886;53.174;6.368;2023-04-28T04:45:14;6.00;99.90
51839;DHT22;37886;53.174;6.368;2023-04-28T04:47:40;5.90;99.90
51839;DHT22;37886;53.174;6.368;2023-04-28T04:50:07;5.90;99.90
51839;DHT22;37886;53.174;6.368;2023-04-28T04:52:32;5.90;99.90
51839;DHT22;37886;53.174;6.368;2023-04-28T04:54:59;6.00;99.90
51839;DHT22;37886;53.174;6.368;2023-04-28T04:57:24;6.00;99.90
51839;DHT22;37886;53.174;6.368;2023-04-28T04:59:50;6.10;99.90
51839;DHT22;37886;53.174;6.368;2023-04-28T05:02:16;6.00;99.90
51839;DHT22;37886;53.174;6.368;2023-04-28T05:04:42;6.00;99.90
51839;DHT22;37886;53.174;6.368;2023-04-28T05:07:08;6.00;99.90
51839;DHT22;37886;53.174;6.368;2023-04-28T05:09:33;6.00;99.90
51839;DHT22;37886;53.174;6.368;2023-04-28T05:11:59;6.00;99.90
51839;DHT22;37886;53.174;6.368;2023-04-28T05:14:25;6.10;99.90
51839;DHT22;37886;53.174;6.368;2023-04-28T05:16:51;6.20;99.90
51839;DHT22;37886;53.174;6.368;2023-04-28T05:19:17;6.10;99.90
51839;DHT22;37886;53.174;6.368;2023-04-28T05:21:42;6.10;99.90
51839;DHT22;37886;53.174;6.368;2023-04-28T05:24:08;6.20;99.90
51839;DHT22;37886;53.174;6.368;2023-04-28T05:26:35;6.20;99.90
51839;DHT22;37886;53.174;6.368;2023-04-28T05:29:00;6.30;99.90
51839;DHT22;37886;53.174;6.368;2023-04-28T05:31:26;6.30;99.90
51839;DHT22;37886;53.174;6.368;2023-04-28T05:33:52;6.40;99.90
51839;DHT22;37886;53.174;6.368;2023-04-28T05:36:17;6.40;99.90
51839;DHT22;37886;53.174;6.368;2023-04-28T05:38:43;6.50;99.90
51839;DHT22;37886;53.174;6.368;2023-04-28T05:41:09;6.50;99.90
51839;DHT22;37886;53.174;6.368;2023-04-28T05:43:34;6.50;99.90
51839;DHT22;37886;53.174;6.368;2023-04-28T05:46:00;6.50;99.90
51839;DHT22;37886;53.174;6.368;2023-04-28T05:48:26;6.50;99.90
51839;DHT22;37886;53.174;6.368;2023-04-28T05:50:52;6.50;99.90
51839;DHT22;37886;53.174;6.368;2023-04-28T05:53:18;6.50;99.90
51839;DHT22;37886;53.174;6.368;2023-04-28T05:55:44;6.50;99.90
51839;DHT22;37886;53.174;6.368;2023-04-28T05:58:10;6.60;99.90
51839;DHT22;37886;53.174;6.368;2023-04-28T06:00:35;6.60;99.90
51839;DHT22;37886;53.174;6.368;2023-04-28T06:03:01;6.60;99.90
51839;DHT22;37886;53.174;6.368;2023-04-28T06:05:27;6.60;99.90
51839;DHT22;37886;53.174;6.368;2023-04-28T06:07:53;6.70;99.90
51839;DHT22;37886;53.174;6.368;2023-04-28T06:10:21;6.70;99.90
51839;DHT22;37886;53.174;6.368;2023-04-28T06:12:47;6.70;99.90
51839;DHT22;37886;53.174;6.368;2023-04-28T06:15:12;6.70;99.90
51839;DHT22;37886;53.174;6.368;2023-04-28T06:17:38;6.80;99.90
51839;DHT22;37886;53.174;6.368;2023-04-28T06:20:05;6.80;99.90
51839;DHT22;37886;53.174;6.368;2023-04-28T06:22:32;6.80;99.90
51839;DHT22;37886;53.174;6.368;2023-04-28T06:24:57;6.90;99.90
51839;DHT22;37886;53.174;6.368;2023-04-28T06:27:23;7.00;99.90
51839;DHT22;37886;53.174;6.368;2023-04-28T06:29:49;7.00;99.90
51839;DHT22;37886;53.174;6.368;2023-04-28T06:32:14;7.10;99.90
51839;DHT22;37886;53.174;6.368;2023-04-28T06:34:41;7.20;99.90
51839;DHT22;37886;53.174;6.368;2023-04-28T06:37:07;7.20;99.90
51839;DHT22;37886;53.174;6.368;2023-04-28T06:39:32;7.30;99.90
51839;DHT22;37886;53.174;6.368;2023-04-28T06:41:58;7.40;99.90
51839;DHT22;37886;53.174;6.368;2023-04-28T06:44:24;7.50;99.90
51839;DHT22;37886;53.174;6.368;2023-04-28T06:46:50;7.60;99.90
51839;DHT22;37886;53.174;6.368;2023-04-28T06:49:16;7.60;99.90
51839;DHT22;37886;53.174;6.368;2023-04-28T06:51:41;7.60;99.90
51839;DHT22;37886;53.174;6.368;2023-04-28T06:54:07;7.60;99.90
51839;DHT22;37886;53.174;6.368;2023-04-28T06:56:34;7.60;99.90
51839;DHT22;37886;53.174;6.368;2023-04-28T06:59:00;7.80;99.90
51839;DHT22;37886;53.174;6.368;2023-04-28T07:01:26;7.80;99.90
51839;DHT22;37886;53.174;6.368;2023-04-28T07:03:51;8.00;99.90
51839;DHT22;37886;53.174;6.368;2023-04-28T07:06:17;8.10;99.90
51839;DHT22;37886;53.174;6.368;2023-04-28T07:08:43;8.10;99.90
51839;DHT22;37886;53.174;6.368;2023-04-28T07:11:08;8.20;99.90
51839;DHT22;37886;53.174;6.368;2023-04-28T07:13:34;8.30;99.90
51839;DHT22;37886;53.174;6.368;2023-04-28T07:16:00;8.30;99.90
51839;DHT22;37886;53.174;6.368;2023-04-28T07:18:26;8.40;99.90
51839;DHT22;37886;53.174;6.368;2023-04-28T07:20:52;8.40;99.90
51839;DHT22;37886;53.174;6.368;2023-04-28T07:23:17;8.30;99.90
51839;DHT22;37886;53.174;6.368;2023-04-28T07:25:43;8.40;99.90
51839;DHT22;37886;53.174;6.368;2023-04-28T07:28:09;8.40;99.90
51839;DHT22;37886;53.174;6.368;2023-04-28T07:30:35;8.40;99.90
51839;DHT22;37886;53.174;6.368;2023-04-28T07:33:01;8.30;99.90
51839;DHT22;37886;53.174;6.368;2023-04-28T07:35:27;8.40;99.90
51839;DHT22;37886;53.174;6.368;2023-04-28T07:37:53;8.60;99.90
51839;DHT22;37886;53.174;6.368;2023-04-28T07:40:20;8.80;99.90
51839;DHT22;37886;53.174;6.368;2023-04-28T07:42:46;8.90;99.90
51839;DHT22;37886;53.174;6.368;2023-04-28T07:45:15;9.00;99.90
51839;DHT22;37886;53.174;6.368;2023-04-28T07:47:41;8.90;99.90
51839;DHT22;37886;53.174;6.368;2023-04-28T07:50:07;9.00;99.90
51839;DHT22;37886;53.174;6.368;2023-04-28T07:52:33;9.10;99.90
51839;DHT22;37886;53.174;6.368;2023-04-28T07:54:59;9.20;99.90
51839;DHT22;37886;53.174;6.368;2023-04-28T07:57:26;9.10;99.90
51839;DHT22;37886;53.174;6.368;2023-04-28T07:59:53;8.90;99.90
51839;DHT22;37886;53.174;6.368;2023-04-28T08:02:19;8.80;99.90
51839;DHT22;37886;53.174;6.368;2023-04-28T08:04:45;8.80;99.90
51839;DHT22;37886;53.174;6.368;2023-04-28T08:07:11;8.80;99.90
51839;DHT22;37886;53.174;6.368;2023-04-28T08:09:37;8.70;99.90
51839;DHT22;37886;53.174;6.368;2023-04-28T08:12:05;8.70;99.90
51839;DHT22;37886;53.174;6.368;2023-04-28T08:14:31;8.70;99.90
51839;DHT22;37886;53.174;6.368;2023-04-28T08:16:56;8.80;99.90
51839;DHT22;37886;53.174;6.368;2023-04-28T08:19:22;8.70;99.90
51839;DHT22;37886;53.174;6.368;2023-04-28T08:21:48;8.70;99.90
51839;DHT22;37886;53.174;6.368;2023-04-28T08:24:14;8.70;99.90
51839;DHT22;37886;53.174;6.368;2023-04-28T08:26:39;8.70;99.90
51839;DHT22;37886;53.174;6.368;2023-04-28T08:29:05;8.70;99.90
51839;DHT22;37886;53.174;6.368;2023-04-28T08:31:31;8.50;99.90
51839;DHT22;37886;53.174;6.368;2023-04-28T08:33:57;8.60;99.90
51839;DHT22;37886;53.174;6.368;2023-04-28T08:36:23;8.60;99.90
51839;DHT22;37886;53.174;6.368;2023-04-28T08:38:50;8.60;99.90
51839;DHT22;37886;53.174;6.368;2023-04-28T08:41:17;8.60;99.90
51839;DHT22;37886;53.174;6.368;2023-04-28T08:43:44;8.70;99.90
51839;DHT22;37886;53.174;6.368;2023-04-28T08:46:10;8.70;99.90
51839;DHT22;37886;53.174;6.368;2023-04-28T08:48:42;8.90;99.90
51839;DHT22;37886;53.174;6.368;2023-04-28T08:51:14;9.10;99.90
51839;DHT22;37886;53.174;6.368;2023-04-28T08:53:43;9.40;99.90
51839;DHT22;37886;53.174;6.368;2023-04-28T08:56:09;9.60;99.90
51839;DHT22;37886;53.174;6.368;2023-04-28T08:58:38;9.90;99.90
51839;DHT22;37886;53.174;6.368;2023-04-28T09:01:04;10.10;99.90
51839;DHT22;37886;53.174;6.368;2023-04-28T09:03:30;9.90;99.90
51839;DHT22;37886;53.174;6.368;2023-04-28T09:05:57;10.00;99.90
51839;DHT22;37886;53.174;6.368;2023-04-28T09:08:23;10.20;99.90
51839;DHT22;37886;53.174;6.368;2023-04-28T09:11:08;10.20;99.90
51839;DHT22;37886;53.174;6.368;2023-04-28T09:13:34;10.40;99.90
51839;DHT22;37886;53.174;6.368;2023-04-28T09:16:01;10.40;99.90
51839;DHT22;37886;53.174;6.368;2023-04-28T09:18:28;10.20;99.90
51839;DHT22;37886;53.174;6.368;2023-04-28T09:21:05;10.20;99.90
51839;DHT22;37886;53.174;6.368;2023-04-28T09:23:31;10.30;99.90
51839;DHT22;37886;53.174;6.368;2023-04-28T09:26:07;10.40;99.90
51839;DHT22;37886;53.174;6.368;2023-04-28T09:28:33;10.50;99.90
51839;DHT22;37886;53.174;6.368;2023-04-28T09:31:00;10.70;99.90
51839;DHT22;37886;53.174;6.368;2023-04-28T09:33:26;11.10;99.90
51839;DHT22;37886;53.174;6.368;2023-04-28T09:35:52;11.30;99.90
51839;DHT22;37886;53.174;6.368;2023-04-28T09:38:19;11.30;99.90
51839;DHT22;37886;53.174;6.368;2023-04-28T09:40:58;11.50;99.90
51839;DHT22;37886;53.174;6.368;2023-04-28T09:43:34;11.80;99.90
51839;DHT22;37886;53.174;6.368;2023-04-28T09:46:04;11.90;99.90
51839;DHT22;37886;53.174;6.368;2023-04-28T09:48:34;11.90;99.90
51839;DHT22;37886;53.174;6.368;2023-04-28T09:51:03;11.70;99.90
51839;DHT22;37886;53.174;6.368;2023-04-28T09:53:31;11.60;99.90
51839;DHT22;37886;53.174;6.368;2023-04-28T09:55:58;11.70;99.90
51839;DHT22;37886;53.174;6.368;2023-04-28T09:58:25;11.90;99.90
51839;DHT22;37886;53.174;6.368;2023-04-28T10:00:55;11.90;99.90
51839;DHT22;37886;53.174;6.368;2023-04-28T10:03:23;12.10;99.90
51839;DHT22;37886;53.174;6.368;2023-04-28T10:05:49;12.20;99.90
51839;DHT22;37886;53.174;6.368;2023-04-28T10:08:17;12.40;99.90
51839;DHT22;37886;53.174;6.368;2023-04-28T10:10:45;12.40;99.90
51839;DHT22;37886;53.174;6.368;2023-04-28T10:13:15;12.30;99.90
51839;DHT22;37886;53.174;6.368;2023-04-28T10:15:41;12.50;99.90
51839;DHT22;37886;53.174;6.368;2023-04-28T10:18:07;12.90;99.90
51839;DHT22;37886;53.174;6.368;2023-04-28T10:20:34;12.90;99.90
51839;DHT22;37886;53.174;6.368;2023-04-28T10:25:40;13.20;99.90
51839;DHT22;37886;53.174;6.368;2023-04-28T10:28:07;13.60;99.90
51839;DHT22;37886;53.174;6.368;2023-04-28T10:30:33;13.90;99.90
51839;DHT22;37886;53.174;6.368;2023-04-28T10:40:41;13.30;99.90
51839;DHT22;37886;53.174;6.368;2023-04-28T10:43:08;13.00;99.90
51839;DHT22;37886;53.174;6.368;2023-04-28T10:48:19;12.90;99.90
51839;DHT22;37886;53.174;6.368;2023-04-28T10:56:19;13.20;99.90
51839;DHT22;37886;53.174;6.368;2023-04-28T11:06:20;12.60;99.90
51839;DHT22;37886;53.174;6.368;2023-04-28T11:08:48;12.60;99.90
51839;DHT22;37886;53.174;6.368;2023-04-28T11:11:15;12.60;99.90
51839;DHT22;37886;53.174;6.368;2023-04-28T11:13:41;12.50;99.90
51839;DHT22;37886;53.174;6.368;2023-04-28T11:16:07;12.50;99.90
51839;DHT22;37886;53.174;6.368;2023-04-28T11:21:20;12.50;99.90
51839;DHT22;37886;53.174;6.368;2023-04-28T11:23:46;12.50;99.90
51839;DHT22;37886;53.174;6.368;2023-04-28T11:26:13;12.50;99.90
51839;DHT22;37886;53.174;6.368;2023-04-28T11:28:52;12.60;99.90
51839;DHT22;37886;53.174;6.368;2023-04-28T11:31:19;12.60;99.90
51839;DHT22;37886;53.174;6.368;2023-04-28T11:36:35;13.00;99.90
51839;DHT22;37886;53.174;6.368;2023-04-28T11:39:06;13.20;99.90
51839;DHT22;37886;53.174;6.368;2023-04-28T11:41:36;13.10;99.90
51839;DHT22;37886;53.174;6.368;2023-04-28T11:44:16;13.10;99.90
51839;DHT22;37886;53.174;6.368;2023-04-28T11:46:50;13.20;99.90
51839;DHT22;37886;53.174;6.368;2023-04-28T11:49:21;13.30;99.90
51839;DHT22;37886;53.174;6.368;2023-04-28T11:51:49;13.20;99.90
51839;DHT22;37886;53.174;6.368;2023-04-28T11:54:23;13.10;99.90
51839;DHT22;37886;53.174;6.368;2023-04-28T11:56:50;13.10;99.90
51839;DHT22;37886;53.174;6.368;2023-04-28T11:59:16;13.00;99.90
51839;DHT22;37886;53.174;6.368;2023-04-28T12:01:49;13.00;99.90
51839;DHT22;37886;53.174;6.368;2023-04-28T12:04:51;13.00;99.90
51839;DHT22;37886;53.174;6.368;2023-04-28T12:07:18;13.10;99.90
51839;DHT22;37886;53.174;6.368;2023-04-28T12:09:47;13.10;99.90
51839;DHT22;37886;53.174;6.368;2023-04-28T12:12:27;12.90;99.90
51839;DHT22;37886;53.174;6.368;2023-04-28T12:15:05;12.70;99.90
51839;DHT22;37886;53.174;6.368;2023-04-28T12:17:50;12.70;99.90
51839;DHT22;37886;53.174;6.368;2023-04-28T12:20:38;12.80;99.90
51839;DHT22;37886;53.174;6.368;2023-04-28T12:23:04;12.90;99.90
51839;DHT22;37886;53.174;6.368;2023-04-28T12:25:30;12.80;99.90
51839;DHT22;37886;53.174;6.368;2023-04-28T12:28:03;12.70;99.90
51839;DHT22;37886;53.174;6.368;2023-04-28T12:30:30;12.60;99.90
51839;DHT22;37886;53.174;6.368;2023-04-28T12:32:56;12.60;99.90
51839;DHT22;37886;53.174;6.368;2023-04-28T12:35:23;12.70;99.90
51839;DHT22;37886;53.174;6.368;2023-04-28T12:37:50;12.80;99.90
51839;DHT22;37886;53.174;6.368;2023-04-28T12:40:17;12.90;99.90
51839;DHT22;37886;53.174;6.368;2023-04-28T12:42:43;13.10;99.90
51839;DHT22;37886;53.174;6.368;2023-04-28T12:45:08;13.50;99.90
51839;DHT22;37886;53.174;6.368;2023-04-28T12:47:35;13.80;99.90
51839;DHT22;37886;53.174;6.368;2023-04-28T12:50:00;13.90;99.90
51839;DHT22;37886;53.174;6.368;2023-04-28T12:52:26;14.20;99.90
51839;DHT22;37886;53.174;6.368;2023-04-28T12:54:52;14.30;99.90
51839;DHT22;37886;53.174;6.368;2023-04-28T12:57:18;14.60;99.90
51839;DHT22;37886;53.174;6.368;2023-04-28T12:59:45;14.60;99.90
51839;DHT22;37886;53.174;6.368;2023-04-28T13:02:12;14.60;99.90
51839;DHT22;37886;53.174;6.368;2023-04-28T13:04:39;14.30;99.90
51839;DHT22;37886;53.174;6.368;2023-04-28T13:07:07;14.00;99.90
51839;DHT22;37886;53.174;6.368;2023-04-28T13:09:33;13.70;99.90
51839;DHT22;37886;53.174;6.368;2023-04-28T13:11:59;13.60;99.90
51839;DHT22;37886;53.174;6.368;2023-04-28T13:14:27;13.50;99.90
51839;DHT22;37886;53.174;6.368;2023-04-28T13:16:53;13.40;99.90
51839;DHT22;37886;53.174;6.368;2023-04-28T13:19:19;13.40;99.90
51839;DHT22;37886;53.174;6.368;2023-04-28T13:21:44;13.50;99.90
51839;DHT22;37886;53.174;6.368;2023-04-28T13:24:11;13.20;99.90
51839;DHT22;37886;53.174;6.368;2023-04-28T13:26:38;13.20;99.90
51839;DHT22;37886;53.174;6.368;2023-04-28T13:29:04;13.20;99.90
51839;DHT22;37886;53.174;6.368;2023-04-28T13:31:33;13.20;99.90
51839;DHT22;37886;53.174;6.368;2023-04-28T13:33:58;13.20;99.90
51839;DHT22;37886;53.174;6.368;2023-04-28T13:36:27;13.40;99.90
51839;DHT22;37886;53.174;6.368;2023-04-28T13:38:56;13.40;99.90
51839;DHT22;37886;53.174;6.368;2023-04-28T13:41:21;13.20;99.90
51839;DHT22;37886;53.174;6.368;2023-04-28T13:43:47;12.90;99.90
51839;DHT22;37886;53.174;6.368;2023-04-28T13:46:13;12.80;99.90
51839;DHT22;37886;53.174;6.368;2023-04-28T13:48:39;12.70;99.90
51839;DHT22;37886;53.174;6.368;2023-04-28T13:51:06;12.70;99.90
51839;DHT22;37886;53.174;6.368;2023-04-28T13:53:32;12.60;99.90
51839;DHT22;37886;53.174;6.368;2023-04-28T13:55:59;12.50;99.90
51839;DHT22;37886;53.174;6.368;2023-04-28T13:58:28;12.50;99.90
51839;DHT22;37886;53.174;6.368;2023-04-28T14:00:55;12.60;99.90
51839;DHT22;37886;53.174;6.368;2023-04-28T14:03:22;12.60;99.90
51839;DHT22;37886;53.174;6.368;2023-04-28T14:05:53;12.60;99.90
51839;DHT22;37886;53.174;6.368;2023-04-28T14:08:19;12.60;99.90
51839;DHT22;37886;53.174;6.368;2023-04-28T14:10:45;12.50;99.90
51839;DHT22;37886;53.174;6.368;2023-04-28T14:13:11;12.50;99.90
51839;DHT22;37886;53.174;6.368;2023-04-28T14:15:37;12.50;99.90
51839;DHT22;37886;53.174;6.368;2023-04-28T14:18:03;12.60;99.90
51839;DHT22;37886;53.174;6.368;2023-04-28T14:20:29;12.50;99.90
51839;DHT22;37886;53.174;6.368;2023-04-28T14:22:55;12.40;99.90
51839;DHT22;37886;53.174;6.368;2023-04-28T14:25:21;12.40;99.90
51839;DHT22;37886;53.174;6.368;2023-04-28T14:27:48;12.30;99.90
51839;DHT22;37886;53.174;6.368;2023-04-28T14:30:14;12.20;99.90
51839;DHT22;37886;53.174;6.368;2023-04-28T14:32:40;12.20;99.90
51839;DHT22;37886;53.174;6.368;2023-04-28T14:35:06;12.20;99.90
51839;DHT22;37886;53.174;6.368;2023-04-28T14:37:32;12.20;99.90
51839;DHT22;37886;53.174;6.368;2023-04-28T14:39:58;12.20;99.90
51839;DHT22;37886;53.174;6.368;2023-04-28T14:42:29;12.20;99.90
51839;DHT22;37886;53.174;6.368;2023-04-28T14:44:56;12.20;99.90
51839;DHT22;37886;53.174;6.368;2023-04-28T14:47:22;12.10;99.90
51839;DHT22;37886;53.174;6.368;2023-04-28T14:49:49;12.00;99.90
51839;DHT22;37886;53.174;6.368;2023-04-28T14:52:18;11.90;99.90
51839;DHT22;37886;53.174;6.368;2023-04-28T14:54:43;11.90;99.90
51839;DHT22;37886;53.174;6.368;2023-04-28T14:57:09;11.80;99.90
51839;DHT22;37886;53.174;6.368;2023-04-28T14:59:35;11.80;99.90
51839;DHT22;37886;53.174;6.368;2023-04-28T15:02:01;11.70;99.90
51839;DHT22;37886;53.174;6.368;2023-04-28T15:04:27;11.70;99.90
51839;DHT22;37886;53.174;6.368;2023-04-28T15:06:55;11.70;99.90
51839;DHT22;37886;53.174;6.368;2023-04-28T15:09:22;11.70;99.90
51839;DHT22;37886;53.174;6.368;2023-04-28T15:11:48;11.70;99.90
51839;DHT22;37886;53.174;6.368;2023-04-28T15:14:14;11.80;99.90
51839;DHT22;37886;53.174;6.368;2023-04-28T15:16:40;11.70;99.90
51839;DHT22;37886;53.174;6.368;2023-04-28T15:19:05;11.70;99.90
51839;DHT22;37886;53.174;6.368;2023-04-28T15:21:31;11.60;99.90
51839;DHT22;37886;53.174;6.368;2023-04-28T15:23:57;11.60;99.90
51839;DHT22;37886;53.174;6.368;2023-04-28T15:26:25;11.60;99.90
51839;DHT22;37886;53.174;6.368;2023-04-28T15:28:54;11.60;99.90
51839;DHT22;37886;53.174;6.368;2023-04-28T15:31:19;11.60;99.90
51839;DHT22;37886;53.174;6.368;2023-04-28T15:33:48;11.60;99.90
51839;DHT22;37886;53.174;6.368;2023-04-28T15:36:14;11.60;99.90
51839;DHT22;37886;53.174;6.368;2023-04-28T15:38:40;11.50;99.90
51839;DHT22;37886;53.174;6.368;2023-04-28T15:41:07;11.50;99.90
51839;DHT22;37886;53.174;6.368;2023-04-28T15:43:33;11.50;99.90
51839;DHT22;37886;53.174;6.368;2023-04-28T15:45:59;11.50;99.90
51839;DHT22;37886;53.174;6.368;2023-04-28T15:48:27;11.60;99.90
51839;DHT22;37886;53.174;6.368;2023-04-28T15:50:53;11.50;99.90
51839;DHT22;37886;53.174;6.368;2023-04-28T15:53:19;11.50;99.90
51839;DHT22;37886;53.174;6.368;2023-04-28T15:55:48;11.50;99.90
51839;DHT22;37886;53.174;6.368;2023-04-28T15:58:14;11.40;99.90
51839;DHT22;37886;53.174;6.368;2023-04-28T16:00:40;11.40;99.90
51839;DHT22;37886;53.174;6.368;2023-04-28T16:03:06;11.50;99.90
51839;DHT22;37886;53.174;6.368;2023-04-28T16:05:32;11.50;99.90
51839;DHT22;37886;53.174;6.368;2023-04-28T16:07:57;11.60;99.90
51839;DHT22;37886;53.174;6.368;2023-04-28T16:10:24;11.60;99.90
51839;DHT22;37886;53.174;6.368;2023-04-28T16:12:50;11.70;99.90